Time;durP1;ratioP1;P1;durP2;ratioP2;P2;SDS_P1;SDS_P2;PMS_P1;PMS_P2;Temp;Humidity;BMP_temperature;BMP_pressure;BME280_temperature;BME280_humidity;BME280_pressure;Samples;Min_cycle;Max_cycle;Signal;HPM_P1;HPM_P2
2022/01/17 00:00:21;;;;;;;18.05;2.83;;;5.60;91.00;;;;;;5113257;28;20070;-86
2022/01/17 00:02:49;;;;;;;17.90;3.40;;;5.60;91.20;;;;;;5123189;28;20063;-86
2022/01/17 00:05:18;;;;;;;20.10;2.75;;;5.60;90.40;;;;;;5108553;27;20072;-86
2022/01/17 00:07:45;;;;;;;7.80;1.80;;;5.50;90.50;;;;;;5100193;28;20523;-86
2022/01/17 00:10:13;;;;;;;21.33;2.70;;;5.50;90.40;;;;;;5097556;28;20091;-86
2022/01/17 00:12:44;;;;;;;11.32;2.40;;;5.50;90.50;;;;;;5093968;27;20052;-85
2022/01/17 00:15:21;;;;;;;18.13;2.20;;;5.50;90.40;;;;;;5110142;28;20056;-86
2022/01/17 00:17:56;;;;;;;16.90;1.95;;;5.50;90.20;;;;;;5093530;28;20114;-85
2022/01/17 00:20:26;;;;;;;19.00;2.33;;;5.50;89.20;;;;;;5103273;28;20048;-86
2022/01/17 00:22:54;;;;;;;22.55;2.58;;;5.60;89.50;;;;;;5105036;28;20137;-86
2022/01/17 00:25:21;;;;;;;12.05;1.85;;;5.50;88.40;;;;;;5098283;28;20083;-86
2022/01/17 00:27:51;;;;;;;15.63;2.10;;;5.60;87.50;;;;;;5097426;28;20052;-86
2022/01/17 00:30:18;;;;;;;16.05;1.95;;;5.60;87.40;;;;;;5097570;28;20053;-86
2022/01/17 00:32:45;;;;;;;12.68;2.03;;;5.50;86.70;;;;;;5097636;28;20053;-85
2022/01/17 00:35:12;;;;;;;23.15;2.80;;;5.50;85.60;;;;;;5100456;28;20048;-86
2022/01/17 00:37:41;;;;;;;15.27;2.95;;;5.50;86.30;;;;;;5097964;28;20131;-86
2022/01/17 00:40:09;;;;;;;16.30;2.30;;;5.50;85.70;;;;;;5097445;28;20101;-86
2022/01/17 00:42:36;;;;;;;19.08;2.75;;;5.50;84.30;;;;;;5099371;28;20048;-86
2022/01/17 00:45:06;;;;;;;21.65;2.58;;;5.50;84.00;;;;;;5098190;27;20049;-86
2022/01/17 00:47:33;;;;;;;18.13;2.58;;;5.60;84.50;;;;;;5098085;28;20083;-86
2022/01/17 00:50:00;;;;;;;15.88;2.30;;;5.60;82.60;;;;;;5106700;28;20068;-85
2022/01/17 00:52:29;;;;;;;18.70;2.33;;;5.60;84.70;;;;;;5102438;27;20153;-86
2022/01/17 00:54:55;;;;;;;17.75;2.45;;;5.50;84.70;;;;;;5095578;28;20131;-86
2022/01/17 00:57:22;;;;;;;12.40;2.00;;;5.50;84.90;;;;;;5097782;28;20075;-86
2022/01/17 00:59:49;;;;;;;13.85;1.90;;;5.50;84.70;;;;;;5096877;27;20565;-86
2022/01/17 01:02:16;;;;;;;12.75;1.90;;;5.50;84.40;;;;;;5095249;28;20131;-85
2022/01/17 01:04:44;;;;;;;15.50;2.17;;;5.50;84.30;;;;;;5096415;28;20495;-86
2022/01/17 01:07:10;;;;;;;20.13;2.15;;;5.60;84.20;;;;;;5105708;27;20056;-86
2022/01/17 01:09:48;;;;;;;15.15;2.47;;;5.50;84.30;;;;;;5105599;28;20053;-86
2022/01/17 01:12:15;;;;;;;15.18;3.40;;;5.50;84.40;;;;;;5098888;28;20139;-85
2022/01/17 01:14:43;;;;;;;19.65;2.67;;;5.50;85.00;;;;;;5098301;28;20055;-86
2022/01/17 01:17:20;;;;;;;13.77;1.70;;;5.50;85.10;;;;;;5103198;27;20083;-86
2022/01/17 01:19:57;;;;;;;18.35;2.75;;;5.50;85.70;;;;;;5102150;28;20128;-85
2022/01/17 01:27:57;;;;;;;16.40;2.20;;;5.50;84.80;;;;;;5100070;28;20060;-86
2022/01/17 01:30:27;;;;;;;23.45;2.55;;;5.50;84.40;;;;;;5099125;28;20048;-86
2022/01/17 01:32:57;;;;;;;23.73;2.55;;;5.50;84.10;;;;;;5102720;28;20139;-86
2022/01/17 01:35:26;;;;;;;17.15;2.17;;;5.40;83.80;;;;;;5095514;28;20859;-85
2022/01/17 01:37:53;;;;;;;20.55;2.33;;;5.40;81.80;;;;;;5099465;28;20056;-86
2022/01/17 01:40:21;;;;;;;17.25;2.47;;;5.40;82.80;;;;;;5103864;28;20047;-86
2022/01/17 01:42:52;;;;;;;23.50;2.42;;;5.30;82.10;;;;;;5102956;28;20140;-86
2022/01/17 01:45:24;;;;;;;13.80;2.03;;;5.20;82.80;;;;;;5099232;28;20147;-85
2022/01/17 01:47:51;;;;;;;14.48;2.00;;;5.20;82.90;;;;;;5096923;28;20076;-86
2022/01/17 01:50:19;;;;;;;16.80;2.10;;;5.10;83.00;;;;;;5096827;28;20067;-85
2022/01/17 01:52:46;;;;;;;14.75;2.55;;;5.00;83.20;;;;;;5098936;28;20061;-86
2022/01/17 01:55:15;;;;;;;19.38;1.80;;;4.90;83.50;;;;;;5098276;28;20414;-86
2022/01/17 01:57:43;;;;;;;16.83;1.83;;;4.90;82.80;;;;;;5101317;28;20051;-85
2022/01/17 02:00:14;;;;;;;17.05;2.13;;;5.00;83.20;;;;;;5102543;28;20052;-86
2022/01/17 02:02:42;;;;;;;13.65;2.15;;;5.00;83.60;;;;;;5098179;28;20057;-86
2022/01/17 02:05:09;;;;;;;13.93;2.47;;;5.00;83.80;;;;;;5096016;28;20131;-85
2022/01/17 02:07:36;;;;;;;15.40;2.17;;;5.00;83.70;;;;;;5097542;28;20102;-85
2022/01/17 02:10:06;;;;;;;17.65;1.70;;;4.90;84.20;;;;;;5101016;28;20083;-84
2022/01/17 02:12:33;;;;;;;15.88;2.85;;;4.90;84.20;;;;;;5101041;27;20048;-85
2022/01/17 02:15:00;;;;;;;17.48;2.65;;;4.90;83.10;;;;;;5098708;27;20139;-85
2022/01/17 02:17:30;;;;;;;19.52;2.03;;;4.80;82.90;;;;;;5100289;28;21087;-86
2022/01/17 02:20:07;;;;;;;17.23;2.20;;;4.80;82.90;;;;;;5105889;28;20131;-85
2022/01/17 02:22:34;;;;;;;10.75;1.90;;;4.80;83.10;;;;;;5100804;28;20110;-85
2022/01/17 02:25:02;;;;;;;16.60;1.92;;;4.70;83.40;;;;;;5099495;28;20074;-86
2022/01/17 02:27:29;;;;;;;13.05;1.95;;;4.70;83.00;;;;;;5101837;27;20083;-85
2022/01/17 02:29:55;;;;;;;19.50;1.95;;;4.70;83.30;;;;;;5101314;27;20048;-86
2022/01/17 02:32:25;;;;;;;14.98;2.13;;;4.70;83.00;;;;;;5103863;28;20051;-85
2022/01/17 02:35:10;;;;;;;15.18;1.67;;;4.60;83.10;;;;;;5101619;27;20056;-85
2022/01/17 02:37:37;;;;;;;27.55;4.32;;;4.50;83.20;;;;;;5096725;28;20052;-85
2022/01/17 02:40:04;;;;;;;18.42;2.17;;;4.50;83.70;;;;;;5101159;28;20045;-85
2022/01/17 02:42:33;;;;;;;9.98;1.55;;;4.40;83.60;;;;;;5100443;27;20055;-85
2022/01/17 02:45:08;;;;;;;16.05;1.90;;;4.40;84.20;;;;;;5105558;28;20048;-85
2022/01/17 02:47:35;;;;;;;13.32;2.00;;;4.40;84.00;;;;;;5099896;27;20143;-86
2022/01/17 02:50:03;;;;;;;19.10;2.15;;;4.40;84.30;;;;;;5103059;28;20106;-86
2022/01/17 02:52:30;;;;;;;10.18;1.83;;;4.40;84.10;;;;;;5097624;28;20059;-86
2022/01/17 02:54:56;;;;;;;13.68;1.73;;;4.30;84.10;;;;;;5094718;28;20110;-86
2022/01/17 02:57:25;;;;;;;17.23;2.30;;;4.20;84.30;;;;;;5094714;28;20935;-85
2022/01/17 02:59:52;;;;;;;13.20;1.95;;;4.10;84.10;;;;;;5094687;28;20098;-85
2022/01/17 03:02:19;;;;;;;12.18;1.92;;;4.10;84.40;;;;;;5098645;28;20561;-85
2022/01/17 03:04:47;;;;;;;15.75;1.98;;;4.00;84.50;;;;;;5094796;28;20062;-86
2022/01/17 03:07:13;;;;;;;19.25;2.17;;;3.80;84.50;;;;;;5095075;28;20083;-86
2022/01/17 03:09:51;;;;;;;18.67;2.20;;;3.70;84.90;;;;;;5102905;28;20461;-86
2022/01/17 03:12:20;;;;;;;19.05;1.85;;;3.50;85.20;;;;;;5094297;28;20052;-86
2022/01/17 03:14:48;;;;;;;20.33;2.10;;;3.30;85.70;;;;;;5094565;28;20056;-85
2022/01/17 03:17:14;;;;;;;14.32;1.77;;;3.30;86.30;;;;;;5106085;28;20048;-86
2022/01/17 03:19:41;;;;;;;16.88;2.65;;;3.20;86.20;;;;;;5100868;28;20068;-85
2022/01/17 03:22:08;;;;;;;12.05;1.80;;;3.20;86.20;;;;;;5101613;27;20135;-86
2022/01/17 03:24:34;;;;;;;15.38;2.00;;;3.10;86.30;;;;;;5104298;28;20055;-86
2022/01/17 03:27:01;;;;;;;15.70;3.63;;;3.00;86.50;;;;;;5093935;28;20143;-86
2022/01/17 03:29:28;;;;;;;14.15;2.85;;;2.90;86.50;;;;;;5095336;28;20049;-85
2022/01/17 03:31:57;;;;;;;13.45;2.00;;;2.90;86.60;;;;;;5100069;28;20054;-85
2022/01/17 03:34:24;;;;;;;14.75;1.98;;;2.80;87.20;;;;;;5094655;28;20583;-85
2022/01/17 03:36:51;;;;;;;15.68;2.03;;;2.80;88.10;;;;;;5105877;28;20129;-86
2022/01/17 03:39:20;;;;;;;14.93;2.13;;;2.80;88.10;;;;;;5104152;28;20044;-85
2022/01/17 03:41:49;;;;;;;15.70;2.10;;;2.70;87.70;;;;;;5094698;28;20056;-85
2022/01/17 03:44:16;;;;;;;12.50;1.80;;;2.70;87.60;;;;;;5095441;28;20125;-85
2022/01/17 03:46:42;;;;;;;15.88;2.22;;;2.60;87.60;;;;;;5104729;28;20052;-85
2022/01/17 03:49:09;;;;;;;14.98;2.42;;;2.60;87.70;;;;;;5103301;28;20103;-86
2022/01/17 03:51:36;;;;;;;12.27;1.77;;;2.50;87.90;;;;;;5100186;28;20048;-85
2022/01/17 03:54:03;;;;;;;16.35;2.60;;;2.50;88.20;;;;;;5099125;27;20056;-85
2022/01/17 03:56:33;;;;;;;17.92;1.88;;;2.40;88.20;;;;;;5110593;28;20052;-86
2022/01/17 03:58:59;;;;;;;16.02;2.30;;;2.40;89.00;;;;;;5104175;28;20116;-85
2022/01/17 04:01:26;;;;;;;13.15;1.73;;;2.40;89.10;;;;;;5098242;27;20054;-85
2022/01/17 04:03:55;;;;;;;18.00;2.00;;;2.40;89.00;;;;;;5097951;28;20110;-85
2022/01/17 04:06:26;;;;;;;18.23;2.00;;;2.30;89.10;;;;;;5108479;27;20063;-86
2022/01/17 04:08:55;;;;;;;14.90;1.75;;;2.30;89.00;;;;;;5105100;28;20127;-85
2022/01/17 04:11:25;;;;;;;23.67;1.90;;;2.30;89.20;;;;;;5101855;28;20067;-85
2022/01/17 04:13:52;;;;;;;15.02;2.00;;;2.20;89.20;;;;;;5093481;28;20088;-85
2022/01/17 04:16:19;;;;;;;19.70;2.53;;;2.20;89.40;;;;;;5094656;28;20054;-85
2022/01/17 04:18:46;;;;;;;14.95;1.88;;;2.20;89.50;;;;;;5098710;28;20057;-85
2022/01/17 04:21:13;;;;;;;27.02;2.45;;;2.20;89.90;;;;;;5097728;28;20071;-85
2022/01/17 04:23:39;;;;;;;16.20;2.28;;;2.20;90.10;;;;;;5104265;28;20048;-86
2022/01/17 04:26:06;;;;;;;16.80;2.13;;;2.20;90.30;;;;;;5098761;28;20048;-86
2022/01/17 04:28:33;;;;;;;14.70;1.75;;;2.20;90.60;;;;;;5094764;28;20064;-85
2022/01/17 04:31:00;;;;;;;19.42;2.22;;;2.30;90.70;;;;;;5105310;28;20056;-85
2022/01/17 04:33:27;;;;;;;12.45;1.73;;;2.40;90.60;;;;;;5100193;28;20080;-86
2022/01/17 04:35:53;;;;;;;16.65;1.90;;;2.40;90.80;;;;;;5101019;28;20056;-85
2022/01/17 04:38:20;;;;;;;18.95;2.38;;;2.50;91.30;;;;;;5111036;28;20037;-86
2022/01/17 04:41:02;;;;;;;23.48;2.53;;;2.70;91.60;;;;;;5115878;28;20059;-85
2022/01/17 04:46:06;;;;;;;18.10;2.35;;;2.90;92.30;;;;;;5113309;28;20052;-86
2022/01/17 04:48:33;;;;;;;20.02;2.17;;;3.00;91.90;;;;;;5105308;28;20047;-86
2022/01/17 04:51:00;;;;;;;14.75;2.10;;;3.00;92.00;;;;;;5109037;28;20064;-86
2022/01/17 04:53:28;;;;;;;18.52;2.28;;;3.00;91.40;;;;;;5114574;28;20055;-85
2022/01/17 04:55:57;;;;;;;16.92;2.00;;;2.90;91.20;;;;;;5115962;28;20028;-86
2022/01/17 04:58:24;;;;;;;12.57;2.05;;;2.80;91.30;;;;;;5108472;28;20129;-86
2022/01/17 05:00:53;;;;;;;23.23;2.35;;;2.70;91.60;;;;;;5105381;28;20052;-86
2022/01/17 05:03:23;;;;;;;21.80;2.00;;;2.70;91.60;;;;;;5095085;28;20052;-85
2022/01/17 05:05:53;;;;;;;13.18;2.25;;;2.70;91.50;;;;;;5098876;27;20048;-85
2022/01/17 05:08:20;;;;;;;16.23;2.25;;;2.60;91.80;;;;;;5094042;27;20041;-85
2022/01/17 05:10:51;;;;;;;20.35;2.78;;;2.50;91.90;;;;;;5102380;28;20079;-85
2022/01/17 05:13:23;;;;;;;14.70;2.10;;;2.50;91.80;;;;;;5098730;28;20821;-86
2022/01/17 05:16:06;;;;;;;17.10;2.50;;;2.50;91.80;;;;;;5098730;28;20110;-86
2022/01/17 05:21:03;;;;;;;19.15;2.70;;;2.40;91.90;;;;;;5100292;28;20119;-85
2022/01/17 05:23:30;;;;;;;16.38;2.70;;;2.30;92.20;;;;;;5103537;28;20115;-85
2022/01/17 05:25:59;;;;;;;21.13;3.10;;;2.30;92.10;;;;;;5111228;28;20384;-85
2022/01/17 05:28:26;;;;;;;14.45;2.92;;;2.30;92.80;;;;;;5109190;27;20139;-85
2022/01/17 05:30:53;;;;;;;26.80;3.10;;;2.30;93.50;;;;;;5103975;28;20082;-86
2022/01/17 05:33:20;;;;;;;26.10;3.28;;;2.40;93.70;;;;;;5113540;28;20113;-85
2022/01/17 05:35:47;;;;;;;16.40;3.08;;;2.50;93.60;;;;;;5106376;28;21019;-85
2022/01/17 05:38:14;;;;;;;33.40;3.90;;;2.50;93.80;;;;;;5110101;28;20049;-85
2022/01/17 05:40:42;;;;;;;15.90;3.95;;;2.60;94.20;;;;;;5102273;28;20066;-85
2022/01/17 05:43:09;;;;;;;21.48;4.57;;;2.60;94.40;;;;;;5104240;28;20072;-85
2022/01/17 05:45:35;;;;;;;26.30;3.80;;;2.70;94.60;;;;;;5105578;28;20059;-86
2022/01/17 05:48:02;;;;;;;25.80;4.75;;;2.70;94.50;;;;;;5091768;28;20907;-85
2022/01/17 05:50:29;;;;;;;27.23;4.68;;;2.70;94.40;;;;;;5091974;28;20083;-85
2022/01/17 05:52:56;;;;;;;23.80;4.53;;;2.80;94.30;;;;;;5092071;28;20052;-86
2022/01/17 05:55:23;;;;;;;23.98;4.30;;;2.80;94.40;;;;;;5095150;28;20491;-86
2022/01/17 05:57:50;;;;;;;19.85;4.60;;;2.80;94.30;;;;;;5094651;28;20734;-85
2022/01/17 06:00:17;;;;;;;37.80;4.97;;;2.80;94.10;;;;;;5091661;28;20527;-85
2022/01/17 06:02:45;;;;;;;26.55;4.65;;;2.80;94.20;;;;;;5098980;28;20423;-86
2022/01/17 06:05:12;;;;;;;30.25;6.10;;;2.70;94.20;;;;;;5100336;27;20079;-86
2022/01/17 06:07:39;;;;;;;20.80;5.50;;;2.70;94.50;;;;;;5099745;28;20052;-85
2022/01/17 06:10:07;;;;;;;20.95;5.05;;;2.70;94.20;;;;;;5102531;28;20133;-85
2022/01/17 06:12:34;;;;;;;29.83;4.95;;;2.70;94.50;;;;;;5095474;27;20102;-86
2022/01/17 06:15:03;;;;;;;34.00;6.70;;;2.70;94.50;;;;;;5099185;28;20044;-85
2022/01/17 06:17:30;;;;;;;41.55;5.55;;;2.60;94.20;;;;;;5099665;28;20111;-85
2022/01/17 06:19:57;;;;;;;27.92;6.38;;;2.60;94.40;;;;;;5094333;28;20080;-85
2022/01/17 06:22:24;;;;;;;34.10;7.32;;;2.70;94.80;;;;;;5097883;28;20056;-86
2022/01/17 06:24:51;;;;;;;27.25;6.30;;;2.80;95.40;;;;;;5097387;28;20048;-85
2022/01/17 06:27:18;;;;;;;29.55;6.97;;;2.80;95.40;;;;;;5100575;28;20504;-83
2022/01/17 06:29:45;;;;;;;28.33;7.35;;;2.80;95.50;;;;;;5100044;28;20827;-84
2022/01/17 06:32:15;;;;;;;35.67;7.82;;;2.90;95.40;;;;;;5096300;28;20053;-84
2022/01/17 06:34:56;;;;;;;41.65;9.48;;;2.90;95.50;;;;;;5095018;28;21081;-85
2022/01/17 06:37:26;;;;;;;30.00;8.32;;;3.00;95.70;;;;;;5100329;28;20025;-85
2022/01/17 06:39:53;;;;;;;28.17;7.53;;;3.00;95.70;;;;;;5101417;28;20492;-84
2022/01/17 06:42:22;;;;;;;37.35;8.80;;;3.10;95.70;;;;;;5097082;28;20102;-84
2022/01/17 06:44:51;;;;;;;31.30;8.93;;;3.00;95.60;;;;;;5095561;27;20088;-85
2022/01/17 06:47:18;;;;;;;34.70;8.93;;;3.10;95.60;;;;;;5097193;28;20080;-85
2022/01/17 06:49:45;;;;;;;38.50;9.80;;;3.10;95.50;;;;;;5098860;28;20047;-85
2022/01/17 06:52:12;;;;;;;34.72;10.30;;;3.10;95.70;;;;;;5100448;28;20123;-85
2022/01/17 06:54:39;;;;;;;42.88;10.10;;;3.10;95.80;;;;;;5097995;28;20668;-84
2022/01/17 06:57:05;;;;;;;32.28;10.80;;;3.20;95.90;;;;;;5097954;28;20136;-85
2022/01/17 06:59:32;;;;;;;35.53;10.73;;;3.30;96.20;;;;;;5099560;27;20048;-85
2022/01/17 07:01:59;;;;;;;50.00;11.55;;;3.30;96.20;;;;;;5099302;28;20128;-85
2022/01/17 07:04:26;;;;;;;41.53;12.57;;;3.30;96.20;;;;;;5096463;28;20052;-85
2022/01/17 07:06:52;;;;;;;35.78;11.23;;;3.30;96.10;;;;;;5100798;27;20048;-85
2022/01/17 07:09:19;;;;;;;51.83;13.70;;;3.30;96.10;;;;;;5104756;28;20503;-85
2022/01/17 07:11:51;;;;;;;36.65;12.57;;;3.30;96.00;;;;;;5102212;27;20083;-85
2022/01/17 07:14:19;;;;;;;38.97;12.57;;;3.40;96.10;;;;;;5095209;27;20084;-85
2022/01/17 07:16:46;;;;;;;42.70;13.60;;;3.40;96.20;;;;;;5101845;28;20053;-85
2022/01/17 07:22:13;;;;;;;47.00;13.95;;;3.50;96.40;;;;;;5087431;28;20803;-85
2022/01/17 07:24:42;;;;;;;45.33;13.93;;;3.50;96.30;;;;;;5100050;28;20044;-85
2022/01/17 07:27:09;;;;;;;44.58;14.10;;;3.60;96.40;;;;;;5098344;27;20147;-84
2022/01/17 07:29:36;;;;;;;50.00;15.18;;;3.80;96.60;;;;;;5102158;27;20048;-84
2022/01/17 07:32:03;;;;;;;48.42;14.73;;;3.80;96.50;;;;;;5102483;28;20045;-84
2022/01/17 07:34:30;;;;;;;44.88;13.88;;;3.90;96.40;;;;;;5095542;28;20088;-83
2022/01/17 07:36:57;;;;;;;45.42;14.77;;;3.90;96.40;;;;;;5094396;28;20052;-84
2022/01/17 07:39:24;;;;;;;46.10;15.13;;;4.00;96.40;;;;;;5103226;28;20522;-84
2022/01/17 07:41:51;;;;;;;42.97;13.95;;;4.10;96.50;;;;;;5096197;27;20106;-84
2022/01/17 07:44:21;;;;;;;43.88;14.25;;;4.20;96.50;;;;;;5095300;28;20102;-84
2022/01/17 07:46:53;;;;;;;38.70;13.57;;;4.20;96.50;;;;;;5096289;27;20044;-84
2022/01/17 07:49:20;;;;;;;41.47;12.90;;;4.30;96.30;;;;;;5095153;27;20057;-84
2022/01/17 07:52:03;;;;;;;40.60;12.80;;;4.40;96.20;;;;;;5099255;27;20349;-84
2022/01/17 07:54:44;;;;;;;39.28;12.88;;;4.40;96.00;;;;;;5098495;28;20063;-85
2022/01/17 07:57:21;;;;;;;36.95;12.45;;;4.40;95.80;;;;;;5104066;28;20045;-84
2022/01/17 08:00:04;;;;;;;35.58;11.95;;;4.50;95.70;;;;;;5094011;28;20112;-85
2022/01/17 08:02:32;;;;;;;34.50;12.23;;;4.50;95.70;;;;;;5098393;28;20049;-84
2022/01/17 08:05:14;;;;;;;27.23;11.73;;;4.60;95.60;;;;;;5098193;28;20056;-84
2022/01/17 08:07:45;;;;;;;40.33;11.45;;;4.60;95.50;;;;;;5106380;28;20549;-85
2022/01/17 08:10:33;;;;;;;33.25;11.27;;;4.60;95.40;;;;;;5092255;28;20076;-84
2022/01/17 08:13:23;;;;;;;34.60;9.60;;;4.70;95.20;;;;;;5092814;28;20488;-85
2022/01/17 08:15:51;;;;;;;35.67;9.50;;;4.70;95.00;;;;;;5094318;28;20055;-84
2022/01/17 08:18:19;;;;;;;34.70;8.95;;;4.80;94.90;;;;;;5101172;28;20060;-84
2022/01/17 08:20:53;;;;;;;29.85;8.18;;;4.80;94.60;;;;;;5100376;28;20056;-84
2022/01/17 08:23:25;;;;;;;28.38;8.32;;;4.90;94.40;;;;;;5101926;28;20064;-85
2022/01/17 08:26:12;;;;;;;;;;;;;;;;;;;;;
2022/01/17 08:29:04;;;;;;;26.38;6.65;;;5.00;94.10;;;;;;5097687;28;20424;-84
2022/01/17 08:31:36;;;;;;;29.15;7.80;;;5.00;93.90;;;;;;5102615;27;20048;-84
2022/01/17 08:34:19;;;;;;;30.67;7.82;;;5.10;93.80;;;;;;5097360;28;20049;-84
2022/01/17 08:36:53;;;;;;;31.90;6.85;;;5.20;93.60;;;;;;5097995;28;20126;-84
2022/01/17 08:39:33;;;;;;;25.73;5.93;;;5.20;93.40;;;;;;5098289;28;20499;-84
2022/01/17 08:42:10;;;;;;;;;;;5.20;93.50;;;;;;5097119;28;20048;-84
2022/01/17 08:44:49;;;;;;;20.33;4.97;;;5.30;93.40;;;;;;5092217;28;20670;-85
2022/01/17 08:47:27;;;;;;;23.83;5.53;;;5.30;93.00;;;;;;5092342;28;20052;-84
2022/01/17 08:49:59;;;;;;;27.83;4.97;;;5.30;93.00;;;;;;5100253;28;20044;-85
2022/01/17 08:52:29;;;;;;;30.75;5.50;;;5.40;92.90;;;;;;5098344;28;20053;-85
2022/01/17 08:54:59;;;;;;;28.80;5.40;;;5.40;92.60;;;;;;5092514;28;20048;-85
2022/01/17 08:57:49;;;;;;;28.55;4.68;;;5.40;92.70;;;;;;5105073;28;20579;-85
2022/01/17 09:00:27;;;;;;;21.63;4.40;;;5.50;92.50;;;;;;5099955;28;20048;-85
2022/01/17 09:03:23;;;;;;;24.52;5.25;;;5.50;92.40;;;;;;5094354;28;20465;-85
2022/01/17 09:05:55;;;;;;;29.00;4.13;;;5.50;92.00;;;;;;5109940;27;20044;-85
2022/01/17 09:08:37;;;;;;;38.40;5.05;;;5.60;92.10;;;;;;5095703;28;20072;-85
2022/01/17 09:11:13;;;;;;;29.10;4.72;;;5.60;92.10;;;;;;5094090;28;20048;-85
2022/01/17 09:13:55;;;;;;;15.70;3.70;;;5.60;92.00;;;;;;5095409;28;20052;-84
2022/01/17 09:16:33;;;;;;;31.33;4.07;;;5.70;91.80;;;;;;5096043;28;20048;-85
2022/01/17 09:19:22;;;;;;;30.20;4.10;;;5.70;91.90;;;;;;5043812;28;20220;-85
2022/01/17 09:22:42;;;;;;;19.55;4.43;;;5.80;91.70;;;;;;5028850;28;20208;-85
2022/01/17 09:25:33;;;;;;;25.02;3.38;;;5.80;91.60;;;;;;4988247;28;20066;-85
2022/01/17 09:28:05;;;;;;;29.08;3.95;;;5.90;91.50;;;;;;4991186;28;20514;-85
2022/01/17 09:30:42;;;;;;;34.67;5.13;;;5.90;91.60;;;;;;4994924;28;20103;-85
2022/01/17 09:33:35;;;;;;;;;;;;;;;;;;;;;
2022/01/17 09:36:33;;;;;;;25.83;4.25;;;6.00;91.20;;;;;;5005724;28;21302;-85
2022/01/17 09:39:08;;;;;;;33.85;3.90;;;6.10;91.00;;;;;;4983710;28;20055;-85
2022/01/17 09:42:12;;;;;;;26.23;4.65;;;6.10;90.80;;;;;;5008228;28;20042;-85
2022/01/17 09:44:40;;;;;;;25.17;5.07;;;6.20;90.80;;;;;;5007917;28;20067;-85
2022/01/17 09:47:16;;;;;;;26.75;4.30;;;6.30;90.80;;;;;;5011472;28;20083;-85
2022/01/17 09:49:51;;;;;;;35.30;4.20;;;6.30;90.50;;;;;;4998903;28;20059;-85
2022/01/17 09:52:34;;;;;;;24.67;3.90;;;6.30;90.40;;;;;;4993986;28;20043;-85
2022/01/17 09:55:10;;;;;;;31.13;4.43;;;6.40;90.00;;;;;;4992649;28;20628;-85
2022/01/17 09:57:44;;;;;;;31.80;3.78;;;6.40;90.20;;;;;;5040288;28;20049;-84
2022/01/17 10:00:15;;;;;;;;;;;6.50;90.10;;;;;;5076827;28;20043;-85
2022/01/17 10:02:42;;;;;;;22.77;4.40;;;6.50;90.00;;;;;;5101201;28;20816;-85
2022/01/17 10:05:13;;;;;;;24.75;3.90;;;6.50;89.80;;;;;;5097989;27;20072;-85
2022/01/17 10:08:01;;;;;;;21.95;3.47;;;6.60;89.60;;;;;;5103179;28;20063;-85
2022/01/17 10:10:41;;;;;;;33.22;4.07;;;6.60;89.70;;;;;;5095617;28;20052;-85
2022/01/17 10:13:18;;;;;;;28.48;3.65;;;6.60;89.20;;;;;;5099942;28;20057;-85
2022/01/17 10:16:01;;;;;;;32.88;4.50;;;6.70;89.10;;;;;;5103561;28;20079;-85
2022/01/17 10:18:35;;;;;;;29.10;3.47;;;6.70;89.10;;;;;;5095558;28;20907;-86
2022/01/17 10:21:10;;;;;;;;;;;6.70;89.00;;;;;;5102075;28;20052;-85
2022/01/17 10:37:24;;;;;;;30.17;3.40;;;6.90;88.70;;;;;;5096735;28;20052;-85
2022/01/17 10:39:53;;;;;;;35.22;3.65;;;7.00;88.50;;;;;;5098394;28;20056;-85
2022/01/17 10:42:26;;;;;;;32.17;4.53;;;7.00;88.40;;;;;;5100686;27;20110;-85
2022/01/17 10:44:53;;;;;;;26.23;3.60;;;7.00;88.50;;;;;;5098686;28;20053;-85
2022/01/17 10:47:26;;;;;;;31.40;3.65;;;7.10;88.50;;;;;;5098209;27;20052;-85
2022/01/17 10:49:59;;;;;;;37.53;3.80;;;7.10;88.10;;;;;;5096839;28;20110;-85
2022/01/17 10:52:40;;;;;;;28.30;4.35;;;7.10;88.20;;;;;;5108777;28;20308;-85
2022/01/17 10:55:15;;;;;;;26.17;5.03;;;7.20;87.90;;;;;;5100065;28;20059;-85
2022/01/17 10:57:46;;;;;;;25.67;4.20;;;7.20;88.00;;;;;;5101600;28;20106;-85
2022/01/17 11:00:18;;;;;;;28.63;4.18;;;7.30;87.60;;;;;;5102818;27;20153;-85
2022/01/17 11:02:57;;;;;;;25.77;3.95;;;7.30;87.70;;;;;;5107114;28;20084;-85
2022/01/17 11:05:28;;;;;;;24.77;4.13;;;7.30;87.40;;;;;;5102618;27;20075;-86
2022/01/17 11:08:00;;;;;;;33.88;4.65;;;7.40;87.50;;;;;;5105649;28;20140;-85
2022/01/17 11:10:33;;;;;;;24.23;3.30;;;7.40;87.30;;;;;;5099361;28;20132;-85
2022/01/17 11:13:04;;;;;;;24.85;4.13;;;7.50;87.30;;;;;;5097778;28;20068;-85
2022/01/17 11:15:33;;;;;;;39.42;3.88;;;7.60;87.10;;;;;;5098356;28;20572;-85
2022/01/17 11:18:08;;;;;;;28.33;3.35;;;7.60;86.80;;;;;;5094999;28;20052;-85
2022/01/17 11:20:35;;;;;;;32.88;3.05;;;7.60;86.50;;;;;;5102523;27;20413;-85
2022/01/17 11:23:04;;;;;;;25.05;3.50;;;7.70;86.50;;;;;;5102986;27;20059;-85
2022/01/17 11:25:41;;;;;;;25.45;3.70;;;7.80;86.70;;;;;;5100915;28;20071;-85
2022/01/17 11:28:16;;;;;;;31.10;4.53;;;7.80;86.50;;;;;;5102941;28;20068;-85
2022/01/17 11:30:44;;;;;;;25.88;3.88;;;7.80;85.90;;;;;;5095813;27;20057;-85
2022/01/17 11:33:15;;;;;;;28.98;4.47;;;7.90;85.40;;;;;;5101799;28;20048;-85
2022/01/17 11:35:51;;;;;;;28.67;3.85;;;7.90;85.20;;;;;;5099514;28;20058;-85
2022/01/17 11:38:35;;;;;;;22.95;3.63;;;8.00;85.80;;;;;;5102245;27;20059;-85
2022/01/17 11:41:04;;;;;;;32.63;4.30;;;8.10;85.30;;;;;;5101971;28;20052;-85
2022/01/17 11:43:36;;;;;;;25.48;3.30;;;8.10;84.00;;;;;;5105219;28;20102;-85
2022/01/17 11:46:18;;;;;;;31.33;3.97;;;8.20;84.30;;;;;;5098915;28;20056;-85
2022/01/17 11:49:02;;;;;;;28.08;3.67;;;8.20;84.30;;;;;;5093607;28;20067;-85
2022/01/17 11:51:46;;;;;;;35.42;4.28;;;8.20;84.70;;;;;;5097440;28;20060;-86
2022/01/17 11:54:20;;;;;;;23.73;3.55;;;8.30;84.60;;;;;;5098717;28;20048;-86
2022/01/17 11:57:05;;;;;;;24.25;3.40;;;8.30;84.40;;;;;;5097892;28;20087;-85
2022/01/17 11:59:34;;;;;;;34.10;4.20;;;8.20;83.70;;;;;;5093532;28;20045;-86
2022/01/17 12:02:10;;;;;;;30.10;4.50;;;8.30;84.10;;;;;;5104065;28;20059;-86
2022/01/17 12:04:37;;;;;;;21.55;3.58;;;8.30;84.50;;;;;;5101059;28;20098;-85
2022/01/17 12:07:06;;;;;;;24.05;3.47;;;8.30;84.50;;;;;;5104644;27;20132;-86
2022/01/17 12:09:45;;;;;;;24.27;4.05;;;8.30;83.90;;;;;;5104357;28;20083;-85
2022/01/17 12:12:15;;;;;;;34.47;3.92;;;8.40;83.50;;;;;;5103481;27;20427;-86
2022/01/17 12:14:58;;;;;;;25.80;3.60;;;8.40;84.00;;;;;;5107902;27;20052;-86
2022/01/17 12:17:27;;;;;;;23.15;3.50;;;8.40;83.70;;;;;;5092694;28;20105;-85
2022/01/17 12:20:04;;;;;;;27.52;3.58;;;8.40;83.80;;;;;;5102062;27;20052;-86
2022/01/17 12:22:52;;;;;;;21.15;3.58;;;8.50;83.70;;;;;;5098636;27;20059;-85
2022/01/17 12:25:37;;;;;;;21.60;3.67;;;8.40;83.60;;;;;;5099842;27;20047;-86
2022/01/17 12:28:08;;;;;;;29.75;3.97;;;8.40;83.60;;;;;;5094353;28;20052;-86
2022/01/17 12:30:49;;;;;;;27.15;3.38;;;8.40;84.20;;;;;;5098103;27;20091;-85
2022/01/17 12:33:34;;;;;;;22.70;3.60;;;8.50;83.30;;;;;;5100290;27;20060;-86
2022/01/17 12:36:27;;;;;;;22.83;3.72;;;8.50;83.70;;;;;;5100668;28;20061;-85
2022/01/17 12:39:23;;;;;;;28.80;3.72;;;8.50;83.20;;;;;;5101267;28;20549;-86
2022/01/17 12:41:52;;;;;;;;;;;8.50;82.90;;;;;;5097927;28;20125;-86
2022/01/17 12:44:24;;;;;;;25.13;3.85;;;8.50;83.20;;;;;;5098614;28;19924;-86
2022/01/17 12:47:02;;;;;;;29.10;4.10;;;8.50;83.30;;;;;;5101683;28;20052;-86
2022/01/17 12:49:39;;;;;;;24.90;3.67;;;8.60;82.70;;;;;;5105645;28;20063;-86
2022/01/17 12:52:06;;;;;;;28.63;3.85;;;8.60;83.00;;;;;;5103092;27;20052;-86
2022/01/17 12:54:33;;;;;;;37.90;3.90;;;8.70;82.90;;;;;;5102623;27;20060;-86
2022/01/17 12:57:01;;;;;;;24.35;3.60;;;8.70;83.20;;;;;;5098900;28;20052;-86
2022/01/17 12:59:31;;;;;;;32.08;4.72;;;8.70;81.90;;;;;;5103939;28;20056;-85
2022/01/17 13:02:01;;;;;;;32.42;4.97;;;8.70;82.20;;;;;;5092029;28;20053;-86
2022/01/17 13:04:31;;;;;;;28.48;4.00;;;8.70;81.50;;;;;;5104711;28;20044;-86
2022/01/17 13:07:01;;;;;;;30.85;4.75;;;8.70;82.40;;;;;;5107751;27;20075;-86
2022/01/17 13:09:37;;;;;;;35.42;5.30;;;8.70;81.90;;;;;;5106844;28;20056;-85
2022/01/17 13:12:07;;;;;;;26.00;4.00;;;8.70;82.20;;;;;;5097343;28;20134;-85
2022/01/17 13:14:58;;;;;;;29.92;4.22;;;8.70;81.90;;;;;;5108122;27;20048;-86
2022/01/17 13:17:29;;;;;;;29.48;3.80;;;8.80;82.30;;;;;;5101185;28;20060;-86
2022/01/17 13:20:06;;;;;;;31.70;3.78;;;8.80;82.60;;;;;;5102476;28;20028;-86
2022/01/17 13:22:53;;;;;;;35.45;4.68;;;8.80;82.60;;;;;;5110307;28;20065;-85
2022/01/17 13:25:31;;;;;;;37.00;3.83;;;8.80;81.10;;;;;;5103369;28;20096;-86
2022/01/17 13:28:04;;;;;;;30.13;4.43;;;8.80;81.20;;;;;;5110524;27;20074;-86
2022/01/17 13:30:48;;;;;;;36.53;4.18;;;8.90;81.50;;;;;;5102279;27;20062;-86
2022/01/17 13:33:19;;;;;;;36.22;4.25;;;8.90;81.40;;;;;;5113750;28;20044;-85
2022/01/17 13:35:54;;;;;;;30.05;4.18;;;8.90;81.50;;;;;;5105984;28;20134;-86
2022/01/17 13:38:28;;;;;;;35.20;4.63;;;8.90;81.30;;;;;;5099839;28;20048;-86
2022/01/17 13:41:02;;;;;;;30.95;4.25;;;8.80;81.20;;;;;;5105531;28;20056;-86